createdAt,value
2023-04-01T00:00:55.776Z,72.76
2023-04-01T00:01:55.958Z,72.96
2023-04-01T00:02:55.959Z,73.76
2023-04-01T00:03:55.928Z,73.76
2023-04-01T00:04:55.753Z,72.56
2023-04-01T00:05:55.754Z,74.16
2023-04-01T00:06:55.735Z,73.76
2023-04-01T00:07:55.835Z,73.96
2023-04-01T00:08:55.756Z,72.96
2023-04-01T00:09:55.695Z,74.35
2023-04-01T00:10:55.672Z,72.76
2023-04-01T00:11:55.653Z,74.16
2023-04-01T00:12:55.639Z,72.17
2023-04-01T00:13:55.667Z,74.95
2023-04-01T00:14:55.641Z,73.36
2023-04-01T00:15:56.227Z,73.96
2023-04-01T00:16:55.781Z,73.56
2023-04-01T00:17:55.632Z,74.16
2023-04-01T00:18:55.671Z,72.76
2023-04-01T00:19:55.750Z,73.96
2023-04-01T00:20:55.564Z,73.56
2023-04-01T00:21:55.584Z,73.36
2023-04-01T00:22:55.567Z,73.36
2023-04-01T00:23:55.603Z,73.36
2023-04-01T00:24:55.537Z,72.76
2023-04-01T00:25:55.513Z,74.16
2023-04-01T00:26:55.503Z,74.75
2023-04-01T00:27:55.488Z,73.36
2023-04-01T00:28:55.488Z,73.96
2023-04-01T00:29:55.541Z,74.16
2023-04-01T00:30:55.510Z,74.16
2023-04-01T00:31:55.458Z,73.76
2023-04-01T00:32:55.523Z,74.35
2023-04-01T00:33:55.431Z,73.96
2023-04-01T00:34:55.419Z,74.55
2023-04-01T00:35:55.397Z,73.96
2023-04-01T00:36:55.389Z,73.76
2023-04-01T00:37:55.386Z,73.76
2023-04-01T00:38:55.369Z,73.76
2023-04-01T00:39:55.385Z,73.56
2023-04-01T00:40:55.365Z,73.96
2023-04-01T00:41:55.353Z,74.55
2023-04-01T00:42:55.339Z,73.36
2023-04-01T00:43:55.330Z,72.96
2023-04-01T00:44:55.358Z,73.76
2023-04-01T00:45:55.307Z,74.16
2023-04-01T00:46:55.297Z,73.36
2023-04-01T00:47:55.297Z,74.35
2023-04-01T00:48:55.267Z,73.96
2023-04-01T00:49:55.254Z,74.35
2023-04-01T00:50:55.276Z,74.35
2023-04-01T00:51:55.249Z,74.16
2023-04-01T00:52:55.206Z,73.16
2023-04-01T00:53:55.220Z,75.35
2023-04-01T00:54:55.198Z,73.76
2023-04-01T00:55:55.181Z,72.96
2023-04-01T00:56:55.221Z,73.76
2023-04-01T00:57:55.160Z,74.16
2023-04-01T00:58:55.149Z,73.96
2023-04-01T00:59:55.166Z,74.35
2023-04-01T01:00:55.267Z,74.35
2023-04-01T01:01:55.184Z,73.56
2023-04-01T01:02:55.137Z,73.76
2023-04-01T01:03:55.116Z,73.76
2023-04-01T01:04:55.143Z,73.16
2023-04-01T01:05:55.088Z,73.56
2023-04-01T01:06:55.133Z,73.76
2023-04-01T01:07:55.060Z,74.16
2023-04-01T01:08:55.038Z,73.76
2023-04-01T01:09:55.068Z,74.35
2023-04-01T01:10:55.019Z,72.76
2023-04-01T01:11:55.033Z,73.76
2023-04-01T01:12:54.999Z,74.16
2023-04-01T01:13:54.997Z,74.16
2023-04-01T01:14:54.979Z,73.96
2023-04-01T01:15:54.985Z,73.16
2023-04-01T01:16:55.092Z,74.35
2023-04-01T01:17:55.006Z,73.96
2023-04-01T01:18:54.968Z,76.14
2023-04-01T01:19:54.945Z,74.35
2023-04-01T01:20:54.935Z,74.55
2023-04-01T01:21:54.898Z,73.76
2023-04-01T01:22:54.911Z,74.75
2023-04-01T01:23:54.916Z,74.35
2023-04-01T01:24:54.912Z,74.16
2023-04-01T01:25:54.901Z,73.56
2023-04-01T01:26:54.850Z,73.96
2023-04-01T01:27:55.037Z,74.16
2023-04-01T01:28:54.821Z,74.16
2023-04-01T01:29:54.837Z,73.76
2023-04-01T01:30:54.897Z,74.16
2023-04-01T01:31:54.785Z,74.55
2023-04-01T01:32:54.809Z,73.76
2023-04-01T01:33:54.787Z,75.55
2023-04-01T01:34:54.762Z,73.16
2023-04-01T01:35:54.828Z,74.35
2023-04-01T01:36:54.736Z,72.96
2023-04-01T01:37:54.785Z,74.16
2023-04-01T01:38:54.732Z,73.96
2023-04-01T01:39:54.749Z,74.35
2023-04-01T01:40:54.769Z,73.36
2023-04-01T01:41:54.710Z,74.35
2023-04-01T01:42:54.665Z,73.76
2023-04-01T01:43:54.673Z,75.15
2023-04-01T01:44:54.663Z,74.16
2023-04-01T01:45:54.674Z,73.96
2023-04-01T01:46:54.616Z,73.36
2023-04-01T01:47:54.655Z,73.56
2023-04-01T01:48:54.596Z,73.76
2023-04-01T01:49:54.621Z,74.16
2023-04-01T01:50:54.583Z,73.76
2023-04-01T01:51:54.576Z,74.35
2023-04-01T01:52:54.604Z,74.55
2023-04-01T01:53:54.575Z,73.96
2023-04-01T01:54:54.673Z,75.15
2023-04-01T01:55:54.565Z,74.75
2023-04-01T01:56:54.561Z,74.75
2023-04-01T01:57:54.556Z,74.35
2023-04-01T01:58:54.519Z,74.75
2023-04-01T01:59:54.576Z,74.55
2023-04-01T02:00:54.492Z,74.16
2023-04-01T02:01:54.525Z,74.75
2023-04-01T02:02:54.754Z,74.35
2023-04-01T02:03:54.546Z,74.16
2023-04-01T02:04:54.569Z,74.55
2023-04-01T02:05:54.473Z,74.35
2023-04-01T02:06:54.438Z,74.35
2023-04-01T02:07:54.441Z,74.75
2023-04-01T02:08:54.460Z,74.55
2023-04-01T02:09:54.393Z,75.94
2023-04-01T02:10:54.425Z,74.75
2023-04-01T02:11:54.383Z,74.75
2023-04-01T02:12:54.421Z,74.55
2023-04-01T02:13:54.364Z,74.55
2023-04-01T02:14:54.325Z,74.55
2023-04-01T02:15:54.385Z,73.96
2023-04-01T02:16:54.315Z,73.16
2023-04-01T02:17:54.325Z,74.35
2023-04-01T02:18:54.347Z,73.56
2023-04-01T02:19:54.292Z,74.35
2023-04-01T02:20:54.267Z,73.56
2023-04-01T02:21:54.246Z,74.55
2023-04-01T02:22:54.247Z,74.95
2023-04-01T02:23:54.539Z,74.55
2023-04-01T02:24:54.224Z,74.75
2023-04-01T02:25:54.217Z,73.96
2023-04-01T02:26:54.312Z,74.35
2023-04-01T02:27:54.221Z,73.96
2023-04-01T02:28:54.173Z,74.75
2023-04-01T02:29:54.248Z,74.35
2023-04-01T02:30:54.211Z,74.55
2023-04-01T02:31:54.189Z,74.55
2023-04-01T02:32:54.235Z,74.55
2023-04-01T02:33:54.142Z,74.55
2023-04-01T02:34:54.126Z,74.16
2023-04-01T02:35:54.213Z,74.35
2023-04-01T02:36:54.142Z,73.96
2023-04-01T02:37:54.103Z,74.55
2023-04-01T02:38:54.115Z,74.16
2023-04-01T02:39:54.046Z,74.95
2023-04-01T02:40:54.057Z,75.15
2023-04-01T02:41:54.030Z,73.96
2023-04-01T02:42:54.023Z,74.35
2023-04-01T02:43:54.061Z,74.35
2023-04-01T02:44:54.094Z,75.94
2023-04-01T02:45:54.066Z,74.55
2023-04-01T02:46:54.060Z,74.75
2023-04-01T02:47:54.236Z,74.35
2023-04-01T02:48:54.058Z,74.75
2023-04-01T02:49:53.979Z,74.16
2023-04-01T02:50:53.994Z,74.55
2023-04-01T02:51:53.922Z,74.35
2023-04-01T02:52:53.997Z,74.55
2023-04-01T02:53:53.912Z,74.95
2023-04-01T02:54:53.944Z,74.75
2023-04-01T02:55:53.921Z,74.95
2023-04-01T02:56:54.002Z,75.15
2023-04-01T02:57:53.960Z,73.96
2023-04-01T02:58:53.850Z,75.35
2023-04-01T02:59:53.852Z,74.75
2023-04-01T03:00:53.971Z,75.15
2023-04-01T03:01:53.896Z,74.55
2023-04-01T03:02:53.873Z,75.15
2023-04-01T03:03:53.812Z,74.35
2023-04-01T03:04:53.883Z,75.75
2023-04-01T03:05:53.784Z,74.75
2023-04-01T03:06:53.856Z,74.75
2023-04-01T03:07:53.901Z,75.35
2023-04-01T03:08:53.859Z,74.75
2023-04-01T03:09:53.760Z,74.16
2023-04-01T03:10:53.757Z,74.55
2023-04-01T03:11:53.753Z,73.36
2023-04-01T03:12:53.800Z,75.15
2023-04-01T03:13:53.703Z,75.15
2023-04-01T03:14:53.684Z,74.55
2023-04-01T03:15:53.683Z,75.94
2023-04-01T03:16:53.774Z,75.35
2023-04-01T03:17:53.723Z,74.55
2023-04-01T03:18:53.811Z,74.55
2023-04-01T03:19:53.721Z,75.15
2023-04-01T03:20:53.664Z,74.95
2023-04-01T03:21:53.643Z,74.55
2023-04-01T03:22:53.596Z,73.76
2023-04-01T03:23:53.622Z,74.95
2023-04-01T03:24:53.617Z,75.15
2023-04-01T03:25:53.600Z,75.15
2023-04-01T03:26:53.658Z,75.15
2023-04-01T03:27:53.566Z,74.55
2023-04-01T03:28:53.534Z,75.55
2023-04-01T03:29:53.624Z,74.16
2023-04-01T03:30:53.586Z,73.56
2023-04-01T03:31:53.572Z,75.35
2023-04-01T03:32:53.625Z,74.75
2023-04-01T03:33:53.487Z,73.36
2023-04-01T03:34:53.470Z,73.76
2023-04-01T03:35:53.620Z,73.96
2023-04-01T03:36:53.462Z,75.15
2023-04-01T03:37:53.454Z,73.96
2023-04-01T03:38:53.517Z,75.35
2023-04-01T03:39:53.431Z,74.16
2023-04-01T03:40:53.417Z,74.55
2023-04-01T03:41:53.479Z,75.15
2023-04-01T03:42:53.465Z,76.14
2023-04-01T03:43:53.448Z,76.14
2023-04-01T03:44:53.427Z,75.75
2023-04-01T03:45:53.467Z,75.15
2023-04-01T03:46:53.411Z,75.55
2023-04-01T03:47:53.423Z,74.55
2023-04-01T03:48:53.323Z,75.15
2023-04-01T03:49:53.320Z,75.55
2023-04-01T03:50:53.323Z,74.95
2023-04-01T03:51:53.292Z,75.15
2023-04-01T03:52:53.286Z,76.34
2023-04-01T03:53:53.269Z,75.15
2023-04-01T03:54:53.334Z,74.75
2023-04-01T03:55:53.303Z,75.35
2023-04-01T03:56:53.352Z,74.55
2023-04-01T03:57:53.337Z,75.15
2023-04-01T03:58:53.263Z,75.94
2023-04-01T03:59:53.233Z,74.75
2023-04-01T04:00:53.246Z,75.55
2023-04-01T04:01:53.201Z,75.35
2023-04-01T04:02:53.245Z,74.75
2023-04-01T04:03:53.232Z,74.55
2023-04-01T04:04:53.258Z,74.35
2023-04-01T04:05:53.175Z,75.55
2023-04-01T04:06:53.201Z,74.75
2023-04-01T04:07:53.140Z,75.15
2023-04-01T04:08:53.137Z,75.75
2023-04-01T04:09:53.110Z,75.35
2023-04-01T04:10:53.112Z,74.95
2023-04-01T04:11:53.150Z,75.15
2023-04-01T04:12:53.099Z,74.75
2023-04-01T04:13:53.081Z,75.55
2023-04-01T04:14:53.054Z,75.35
2023-04-01T04:15:53.059Z,75.55
2023-04-01T04:16:53.044Z,75.35
2023-04-01T04:17:53.050Z,75.55
2023-04-01T04:18:53.017Z,76.54
2023-04-01T04:19:53.015Z,75.55
2023-04-01T04:20:52.994Z,75.35
2023-04-01T04:21:53.010Z,74.95
2023-04-01T04:22:53.008Z,75.15
2023-04-01T04:23:52.975Z,74.75
2023-04-01T04:24:53.049Z,74.95
2023-04-01T04:25:52.995Z,76.74
2023-04-01T04:26:52.950Z,75.55
2023-04-01T04:27:52.998Z,76.54
2023-04-01T04:28:52.935Z,75.55
2023-04-01T04:29:52.923Z,75.55
2023-04-01T04:30:52.906Z,74.75
2023-04-01T04:31:53.017Z,74.75
2023-04-01T04:32:52.918Z,74.35
2023-04-01T04:33:52.867Z,75.15
2023-04-01T04:34:52.852Z,75.15
2023-04-01T04:35:52.887Z,76.34
2023-04-01T04:36:52.831Z,75.75
2023-04-01T04:37:52.839Z,75.75
2023-04-01T04:38:52.755Z,75.15
2023-04-01T04:39:52.748Z,75.75
2023-04-01T04:40:52.733Z,74.75
2023-04-01T04:41:52.723Z,75.94
2023-04-01T04:42:52.729Z,75.55
2023-04-01T04:43:52.709Z,76.14
2023-04-01T04:44:52.683Z,76.34
2023-04-01T04:45:52.696Z,75.55
2023-04-01T04:46:52.763Z,73.76
2023-04-01T04:47:52.690Z,75.55
2023-04-01T04:48:52.635Z,75.15
2023-04-01T04:49:52.629Z,75.94
2023-04-01T04:50:52.670Z,75.94
2023-04-01T04:51:52.615Z,75.75
2023-04-01T04:52:52.605Z,75.75
2023-04-01T04:53:53.171Z,75.75
2023-04-01T04:54:52.716Z,75.35
2023-04-01T04:55:52.572Z,75.55
2023-04-01T04:56:52.611Z,74.35
2023-04-01T04:57:52.559Z,76.14
2023-04-01T04:58:52.602Z,75.94
2023-04-01T04:59:52.588Z,75.55
2023-04-01T05:00:52.637Z,75.75
2023-04-01T05:01:52.576Z,75.55
2023-04-01T05:02:52.586Z,75.35
2023-04-01T05:03:52.530Z,74.95
2023-04-01T05:04:52.573Z,74.95
2023-04-01T05:05:52.531Z,76.14
2023-04-01T05:06:52.491Z,75.75
2023-04-01T05:07:52.482Z,76.34
2023-04-01T05:08:52.453Z,75.35
2023-04-01T05:09:52.420Z,76.14
2023-04-01T05:10:52.412Z,75.15
2023-04-01T05:11:52.418Z,75.75
2023-04-01T05:12:52.407Z,76.94
2023-04-01T05:13:52.390Z,74.95
2023-04-01T05:14:52.361Z,75.35
2023-04-01T05:15:52.357Z,76.54
2023-04-01T05:16:52.375Z,75.35
2023-04-01T05:17:52.373Z,75.35
2023-04-01T05:18:52.336Z,74.95
2023-04-01T05:19:52.314Z,75.94
2023-04-01T05:20:52.310Z,76.14
2023-04-01T05:21:52.318Z,75.35
2023-04-01T05:22:52.286Z,76.74
2023-04-01T05:23:52.268Z,75.75
2023-04-01T05:24:52.275Z,76.34
2023-04-01T05:25:52.251Z,76.14
2023-04-01T05:26:52.256Z,76.54
2023-04-01T05:27:52.274Z,76.14
2023-04-01T05:28:52.247Z,76.14
2023-04-01T05:29:52.207Z,76.54
2023-04-01T05:30:52.313Z,76.14
2023-04-01T05:31:52.191Z,76.34
2023-04-01T05:32:52.235Z,76.34
2023-04-01T05:33:52.157Z,76.54
2023-04-01T05:34:52.176Z,75.75
2023-04-01T05:35:52.186Z,76.54
2023-04-01T05:36:52.135Z,75.55
2023-04-01T05:37:52.126Z,75.94
2023-04-01T05:38:52.114Z,75.94
2023-04-01T05:39:52.114Z,76.74
2023-04-01T05:40:52.096Z,76.54
2023-04-01T05:41:52.074Z,76.14
2023-04-01T05:42:52.068Z,76.54
2023-04-01T05:43:52.074Z,76.14
2023-04-01T05:44:52.058Z,76.94
2023-04-01T05:45:52.149Z,73.96
2023-04-01T05:46:52.142Z,76.14
2023-04-01T05:47:52.044Z,75.94
2023-04-01T05:48:52.014Z,76.34
2023-04-01T05:49:51.980Z,76.54
2023-04-01T05:50:52.010Z,75.94
2023-04-01T05:51:51.985Z,75.55
2023-04-01T05:52:51.975Z,77.73
2023-04-01T05:53:51.943Z,74.95
2023-04-01T05:54:51.959Z,77.14
2023-04-01T05:55:51.928Z,76.74
2023-04-01T05:56:51.963Z,77.34
2023-04-01T05:57:51.917Z,76.34
2023-04-01T05:58:51.906Z,76.74
2023-04-01T05:59:51.891Z,75.75
2023-04-01T06:01:05.892Z,75.35
2023-04-01T06:01:52.954Z,76.74
2023-04-01T06:02:51.946Z,74.75
2023-04-01T06:03:52.095Z,76.74
2023-04-01T06:04:51.938Z,77.34
2023-04-01T06:05:51.830Z,75.75
2023-04-01T06:06:51.814Z,75.35
2023-04-01T06:07:51.886Z,75.94
2023-04-01T06:08:51.831Z,76.94
2023-04-01T06:09:51.794Z,76.94
2023-04-01T06:10:51.779Z,75.94
2023-04-01T06:11:51.834Z,76.34
2023-04-01T06:12:51.752Z,77.34
2023-04-01T06:13:51.755Z,76.54
2023-04-01T06:14:51.753Z,76.54
2023-04-01T06:15:51.862Z,76.74
2023-04-01T06:16:51.707Z,76.94
2023-04-01T06:17:51.738Z,78.13
2023-04-01T06:18:51.691Z,76.94
2023-04-01T06:19:51.686Z,76.34
2023-04-01T06:20:51.679Z,76.54
2023-04-01T06:21:51.726Z,76.34
2023-04-01T06:22:51.667Z,75.94
2023-04-01T06:23:51.626Z,76.74
2023-04-01T06:24:51.699Z,75.55
2023-04-01T06:25:51.598Z,77.53
2023-04-01T06:26:51.636Z,77.14
2023-04-01T06:27:51.598Z,76.54
2023-04-01T06:28:51.670Z,77.53
2023-04-01T06:29:51.618Z,76.94
2023-04-01T06:30:51.586Z,76.74
2023-04-01T06:31:51.623Z,76.54
2023-04-01T06:32:51.832Z,76.54
2023-04-01T06:33:51.537Z,75.94
2023-04-01T06:34:51.547Z,75.94
2023-04-01T06:35:51.603Z,76.34
2023-04-01T06:36:51.533Z,76.34
2023-04-01T06:37:51.480Z,76.74
2023-04-01T06:38:51.493Z,75.94
2023-04-01T06:39:51.466Z,77.34
2023-04-01T06:40:51.446Z,76.94
2023-04-01T06:41:51.491Z,76.94
2023-04-01T06:42:51.475Z,75.75
2023-04-01T06:43:51.411Z,75.94
2023-04-01T06:44:51.450Z,76.54
2023-04-01T06:45:51.496Z,76.74
2023-04-01T06:46:51.637Z,76.74
2023-04-01T06:47:51.446Z,76.54
2023-04-01T06:48:51.414Z,76.54
2023-04-01T06:49:51.365Z,76.74
2023-04-01T06:50:51.376Z,77.34
2023-04-01T06:51:51.353Z,76.94
2023-04-01T06:52:51.325Z,77.14
2023-04-01T06:53:51.315Z,74.95
2023-04-01T06:54:51.337Z,77.14
2023-04-01T06:55:51.285Z,76.74
2023-04-01T06:56:51.311Z,76.74
2023-04-01T06:57:51.276Z,75.35
2023-04-01T06:58:51.321Z,76.94
2023-04-01T06:59:51.331Z,77.14
2023-04-01T07:00:51.282Z,76.94
2023-04-01T07:01:51.262Z,75.35
2023-04-01T07:02:51.331Z,76.94
2023-04-01T07:03:51.238Z,76.34
2023-04-01T07:04:51.269Z,75.75
2023-04-01T07:05:51.445Z,77.14
2023-04-01T07:06:51.224Z,77.93
2023-04-01T07:07:51.204Z,75.55
2023-04-01T07:08:51.188Z,77.14
2023-04-01T07:09:51.173Z,77.14
2023-04-01T07:10:51.125Z,76.14
2023-04-01T07:11:51.144Z,76.94
2023-04-01T07:12:51.132Z,76.54
2023-04-01T07:13:51.103Z,77.14
2023-04-01T07:14:51.098Z,75.55
2023-04-01T07:15:51.112Z,77.14
2023-04-01T07:16:51.128Z,76.54
2023-04-01T07:17:51.111Z,76.94
2023-04-01T07:18:51.042Z,77.34
2023-04-01T07:19:51.275Z,77.14
2023-04-01T07:20:51.041Z,76.74
2023-04-01T07:21:51.006Z,76.34
2023-04-01T07:22:51.033Z,77.14
2023-04-01T07:23:50.991Z,76.94
2023-04-01T07:24:51.003Z,76.54
2023-04-01T07:25:50.962Z,77.14
2023-04-01T07:26:50.956Z,77.53
2023-04-01T07:27:50.961Z,77.14
2023-04-01T07:28:50.955Z,78.73
2023-04-01T07:29:50.924Z,76.94
2023-04-01T07:30:50.967Z,77.53
2023-04-01T07:31:50.914Z,77.93
2023-04-01T07:32:50.960Z,75.75
2023-04-01T07:33:51.224Z,77.14
2023-04-01T07:34:50.901Z,77.14
2023-04-01T07:35:50.923Z,77.14
2023-04-01T07:36:50.877Z,77.34
2023-04-01T07:37:50.857Z,77.53
2023-04-01T07:38:50.919Z,77.14
2023-04-01T07:39:50.880Z,77.73
2023-04-01T07:40:50.922Z,77.53
2023-04-01T07:41:50.848Z,77.34
2023-04-01T07:42:50.809Z,77.53
2023-04-01T07:43:50.828Z,76.14
2023-04-01T07:44:50.785Z,77.93
2023-04-01T07:45:50.791Z,77.34
2023-04-01T07:46:50.766Z,78.53
2023-04-01T07:47:50.773Z,77.53
2023-04-01T07:48:50.731Z,77.73
2023-04-01T07:49:50.735Z,77.14
2023-04-01T07:50:51.938Z,76.34
2023-04-01T07:51:50.753Z,77.14
2023-04-01T07:52:50.664Z,77.14
2023-04-01T07:53:50.695Z,77.34
2023-04-01T07:54:50.790Z,76.54
2023-04-01T07:55:50.718Z,77.34
2023-04-01T07:56:50.694Z,78.33
2023-04-01T07:57:50.647Z,76.34
2023-04-01T07:58:50.617Z,77.53
2023-04-01T07:59:50.594Z,76.94
2023-04-01T08:00:50.614Z,77.34
2023-04-01T08:01:50.568Z,77.14
2023-04-01T08:02:50.647Z,76.74
2023-04-01T08:03:50.801Z,77.53
2023-04-01T08:04:50.664Z,76.94
2023-04-01T08:05:50.578Z,77.14
2023-04-01T08:06:50.550Z,78.13
2023-04-01T08:07:50.586Z,77.93
2023-04-01T08:08:50.497Z,77.73
2023-04-01T08:09:50.533Z,77.53
2023-04-01T08:10:50.511Z,77.93
2023-04-01T08:11:50.482Z,77.93
2023-04-01T08:12:50.445Z,78.33
2023-04-01T08:13:50.446Z,78.93
2023-04-01T08:14:50.475Z,77.53
2023-04-01T08:15:50.491Z,77.53
2023-04-01T08:16:51.155Z,77.93
2023-04-01T08:17:50.421Z,77.34
2023-04-01T08:18:50.433Z,76.54
2023-04-01T08:19:50.392Z,76.94
2023-04-01T08:20:50.405Z,77.53
2023-04-01T08:21:50.388Z,77.73
2023-04-01T08:22:50.396Z,77.34
2023-04-01T08:23:50.342Z,76.74
2023-04-01T08:24:50.318Z,77.73
2023-04-01T08:25:50.336Z,77.14
2023-04-01T08:26:50.333Z,76.94
2023-04-01T08:27:50.302Z,78.73
2023-04-01T08:28:50.271Z,77.14
2023-04-01T08:29:50.266Z,76.54
2023-04-01T08:30:50.317Z,77.14
2023-04-01T08:31:50.375Z,77.53
2023-04-01T08:32:50.321Z,78.53
2023-04-01T08:33:50.218Z,73.76
2023-04-01T08:34:50.212Z,76.74
2023-04-01T08:35:50.200Z,77.93
2023-04-01T08:36:50.208Z,77.34
2023-04-01T08:37:50.231Z,77.73
2023-04-01T08:38:50.248Z,76.34
2023-04-01T08:39:50.155Z,77.53
2023-04-01T08:40:50.165Z,77.14
2023-04-01T08:41:50.170Z,77.14
2023-04-01T08:42:50.169Z,78.13
2023-04-01T08:43:50.154Z,77.34
2023-04-01T08:44:50.203Z,79.13
2023-04-01T08:45:50.160Z,77.93
2023-04-01T08:46:50.086Z,77.53
2023-04-01T08:47:50.100Z,78.13
2023-04-01T08:48:50.047Z,77.93
2023-04-01T08:49:50.046Z,78.13
2023-04-01T08:50:50.061Z,77.93
2023-04-01T08:51:50.054Z,77.34
2023-04-01T08:52:50.027Z,77.93
2023-04-01T08:53:50.017Z,78.73
2023-04-01T08:54:49.976Z,77.53
2023-04-01T08:55:49.993Z,76.94
2023-04-01T08:56:50.119Z,78.13
2023-04-01T08:57:51.019Z,77.93
2023-04-01T08:58:49.969Z,77.14
2023-04-01T08:59:49.942Z,77.93
2023-04-01T09:00:49.930Z,77.34
2023-04-01T09:01:50.039Z,77.14
2023-04-01T09:02:50.045Z,77.53
2023-04-01T09:03:49.985Z,76.94
2023-04-01T09:04:49.893Z,78.73
2023-04-01T09:05:49.872Z,76.34
2023-04-01T09:06:49.854Z,77.53
2023-04-01T09:07:49.870Z,78.93
2023-04-01T09:08:49.835Z,78.73
2023-04-01T09:09:49.832Z,77.53
2023-04-01T09:10:49.817Z,77.53
2023-04-01T09:11:50.936Z,78.33
2023-04-01T09:12:49.783Z,78.13
2023-04-01T09:13:49.806Z,78.13
2023-04-01T09:14:49.789Z,77.93
2023-04-01T09:15:49.842Z,78.13
2023-04-01T09:16:49.761Z,77.93
2023-04-01T09:17:49.797Z,79.72
2023-04-01T09:18:49.737Z,77.53
2023-04-01T09:19:49.748Z,77.53
2023-04-01T09:20:49.705Z,77.53
2023-04-01T09:21:49.751Z,77.34
2023-04-01T09:22:49.722Z,76.54
2023-04-01T09:23:49.783Z,77.73
2023-04-01T09:24:49.678Z,77.73
2023-04-01T09:25:49.698Z,76.34
2023-04-01T09:26:49.657Z,77.53
2023-04-01T09:27:49.666Z,76.94
2023-04-01T09:28:49.619Z,77.34
2023-04-01T09:29:49.785Z,77.73
2023-04-01T09:30:49.610Z,76.74
2023-04-01T09:31:49.718Z,77.93
2023-04-01T09:32:49.621Z,77.14
2023-04-01T09:33:49.631Z,76.34
2023-04-01T09:34:49.616Z,78.33
2023-04-01T09:35:49.697Z,78.33
2023-04-01T09:36:49.544Z,76.94
2023-04-01T09:37:49.725Z,77.34
2023-04-01T09:38:49.538Z,79.13
2023-04-01T09:39:49.506Z,78.33
2023-04-01T09:40:49.517Z,77.34
2023-04-01T09:41:49.507Z,77.73
2023-04-01T09:42:49.625Z,77.73
2023-04-01T09:43:49.545Z,77.73
2023-04-01T09:44:49.508Z,77.34
2023-04-01T09:45:49.513Z,77.14
2023-04-01T09:46:49.534Z,78.73
2023-04-01T09:47:49.681Z,77.14
2023-04-01T09:48:49.487Z,78.33
2023-04-01T09:49:49.533Z,77.73
2023-04-01T09:50:50.243Z,78.13
2023-04-01T09:51:49.446Z,77.14
2023-04-01T09:52:49.465Z,78.33
2023-04-01T09:53:49.390Z,77.93
2023-04-01T09:54:49.439Z,77.34
2023-04-01T09:55:49.406Z,77.34
2023-04-01T09:56:49.363Z,78.53
2023-04-01T09:57:49.355Z,77.34
2023-04-01T09:58:49.334Z,77.93
2023-04-01T09:59:49.330Z,77.73
2023-04-01T10:00:49.539Z,77.53
2023-04-01T10:01:49.354Z,78.33
2023-04-01T10:02:49.347Z,77.14
2023-04-01T10:03:49.321Z,77.14
2023-04-01T10:04:49.323Z,78.73
2023-04-01T10:05:49.385Z,78.13
2023-04-01T10:06:49.349Z,78.73
2023-04-01T10:07:49.296Z,76.34
2023-04-01T10:08:49.321Z,78.93
2023-04-01T10:09:49.263Z,78.53
2023-04-01T10:10:49.259Z,78.53
2023-04-01T10:11:49.239Z,78.53
2023-04-01T10:12:49.221Z,78.53
2023-04-01T10:13:49.274Z,77.73
2023-04-01T10:14:49.185Z,77.14
2023-04-01T10:15:49.205Z,76.34
2023-04-01T10:16:50.103Z,76.74
2023-04-01T10:17:49.248Z,77.93
2023-04-01T10:18:49.200Z,77.14
2023-04-01T10:19:49.132Z,78.53
2023-04-01T10:20:49.120Z,78.53
2023-04-01T10:21:49.099Z,78.73
2023-04-01T10:22:49.135Z,79.13
2023-04-01T10:23:49.106Z,77.34
2023-04-01T10:24:49.119Z,78.73
2023-04-01T10:25:49.068Z,77.53
2023-04-01T10:26:49.050Z,77.53
2023-04-01T10:27:49.058Z,78.93
2023-04-01T10:28:49.100Z,78.53
2023-04-01T10:29:49.005Z,77.53
2023-04-01T10:30:49.027Z,77.73
2023-04-01T10:31:49.173Z,76.54
2023-04-01T10:32:49.057Z,77.73
2023-04-01T10:33:48.967Z,76.74
2023-04-01T10:34:48.946Z,78.73
2023-04-01T10:35:49.034Z,77.93
2023-04-01T10:36:48.950Z,78.33
2023-04-01T10:37:48.928Z,77.73
2023-04-01T10:38:48.933Z,77.73
2023-04-01T10:39:48.920Z,77.53
2023-04-01T10:40:48.906Z,77.34
2023-04-01T10:41:48.926Z,78.13
2023-04-01T10:42:48.868Z,77.93
2023-04-01T10:43:48.864Z,77.73
2023-04-01T10:44:48.882Z,77.53
2023-04-01T10:45:48.934Z,77.53
2023-04-01T10:46:48.848Z,77.34
2023-04-01T10:47:48.978Z,76.34
2023-04-01T10:48:48.791Z,77.34
2023-04-01T10:49:48.770Z,78.53
2023-04-01T10:50:48.789Z,76.54
2023-04-01T10:51:48.743Z,78.13
2023-04-01T10:52:48.775Z,77.14
2023-04-01T10:53:48.725Z,77.14
2023-04-01T10:54:48.720Z,77.93
2023-04-01T10:55:48.718Z,78.53
2023-04-01T10:56:48.686Z,77.93
2023-04-01T10:57:48.672Z,79.13
2023-04-01T10:58:48.729Z,79.13
2023-04-01T10:59:48.666Z,78.33
2023-04-01T11:00:48.735Z,77.93
2023-04-01T11:01:54.926Z,77.34
2023-04-01T11:02:49.757Z,77.14
2023-04-01T11:03:49.008Z,77.93
2023-04-01T11:04:48.641Z,77.34
2023-04-01T11:05:48.617Z,78.13
2023-04-01T11:06:48.586Z,77.93
2023-04-01T11:08:02.848Z,78.13
2023-04-01T11:08:49.630Z,78.13
2023-04-01T11:09:48.537Z,77.73
2023-04-01T11:10:48.553Z,77.73
2023-04-01T11:11:48.539Z,78.13
2023-04-01T11:12:48.513Z,77.73
2023-04-01T11:13:48.546Z,77.73
2023-04-01T11:14:48.485Z,77.34
2023-04-01T11:15:48.535Z,79.13
2023-04-01T11:16:48.450Z,78.33
2023-04-01T11:17:48.540Z,78.93
2023-04-01T11:18:48.457Z,78.13
2023-04-01T11:19:48.446Z,77.34
2023-04-01T11:20:48.409Z,77.14
2023-04-01T11:21:48.410Z,78.53
2023-04-01T11:22:48.389Z,78.53
2023-04-01T11:24:01.830Z,77.93
2023-04-01T11:24:49.361Z,77.93
2023-04-01T11:25:48.364Z,77.34
2023-04-01T11:26:48.384Z,78.33
2023-04-01T11:27:48.361Z,77.53
2023-04-01T11:28:48.388Z,77.53
2023-04-01T11:29:59.131Z,78.33
2023-04-01T11:30:49.303Z,77.73
2023-04-01T11:31:48.454Z,78.93
2023-04-01T11:32:48.334Z,78.13
2023-04-01T11:33:48.780Z,77.73
2023-04-01T11:34:48.302Z,77.93
2023-04-01T11:35:48.274Z,78.33
2023-04-01T11:36:48.364Z,78.93
2023-04-01T11:37:48.221Z,78.93
2023-04-01T11:38:48.260Z,77.73
2023-04-01T11:39:48.251Z,78.73
2023-04-01T11:40:48.180Z,77.53
2023-04-01T11:41:48.209Z,77.93
2023-04-01T11:42:48.214Z,78.13
2023-04-01T11:43:48.184Z,77.53
2023-04-01T11:44:48.158Z,78.53
2023-04-01T11:45:48.243Z,78.13
2023-04-01T11:46:48.331Z,77.93
2023-04-01T11:47:48.177Z,77.93
2023-04-01T11:48:48.129Z,77.93
2023-04-01T11:49:48.116Z,76.94
2023-04-01T11:50:48.107Z,77.53
2023-04-01T11:51:48.065Z,77.53
2023-04-01T11:52:48.056Z,77.14
2023-04-01T11:53:48.134Z,77.73
2023-04-01T11:54:48.083Z,76.54
2023-04-01T11:55:50.361Z,76.74
2023-04-01T11:56:48.023Z,77.53
2023-04-01T11:57:48.023Z,77.93
2023-04-01T11:58:48.010Z,76.34
2023-04-01T11:59:47.989Z,78.13
2023-04-01T12:00:48.033Z,77.93
2023-04-01T12:01:48.002Z,77.34
2023-04-01T12:02:48.106Z,77.53
2023-04-01T12:03:48.150Z,78.13
2023-04-01T12:04:48.027Z,77.93
2023-04-01T12:05:47.946Z,76.54
2023-04-01T12:06:47.945Z,77.73
2023-04-01T12:07:47.955Z,77.93
2023-04-01T12:08:47.890Z,77.93
2023-04-01T12:09:47.905Z,78.73
2023-04-01T12:10:47.871Z,78.33
2023-04-01T12:11:47.866Z,77.53
2023-04-01T12:13:00.034Z,77.73
2023-04-01T12:13:48.862Z,77.73
2023-04-01T12:14:47.837Z,78.13
2023-04-01T12:15:47.814Z,78.13
2023-04-01T12:16:47.867Z,77.73
2023-04-01T12:17:47.945Z,78.13
2023-04-01T12:18:47.815Z,78.13
2023-04-01T12:19:47.773Z,78.73
2023-04-01T12:20:47.774Z,78.53
2023-04-01T12:21:47.790Z,77.14
2023-04-01T12:22:47.754Z,80.72
2023-04-01T12:23:47.758Z,77.53
2023-04-01T12:24:47.749Z,77.14
2023-04-01T12:25:47.700Z,77.34
2023-04-01T12:26:47.726Z,77.93
2023-04-01T12:27:47.680Z,78.13
2023-04-01T12:28:47.711Z,77.93
2023-04-01T12:29:47.679Z,78.73
2023-04-01T12:30:47.690Z,78.73
2023-04-01T12:31:47.675Z,78.53
2023-04-01T12:32:47.749Z,77.93
2023-04-01T12:33:47.632Z,78.13
2023-04-01T12:34:47.649Z,77.34
2023-04-01T12:35:47.631Z,76.54
2023-04-01T12:36:48.779Z,77.93
2023-04-01T12:37:47.594Z,77.93
2023-04-01T12:38:47.720Z,78.13
2023-04-01T12:39:47.598Z,78.53
2023-04-01T12:40:47.557Z,78.33
2023-04-01T12:41:47.555Z,78.73
2023-04-01T12:42:47.586Z,77.93
2023-04-01T12:43:47.539Z,79.52
2023-04-01T12:44:47.507Z,78.33
2023-04-01T12:45:47.514Z,77.53
2023-04-01T12:46:47.474Z,77.53
2023-04-01T12:47:47.506Z,78.13
2023-04-01T12:48:47.469Z,78.13
2023-04-01T12:49:47.437Z,77.93
2023-04-01T12:50:47.632Z,77.73
2023-04-01T12:51:47.484Z,78.33
2023-04-01T12:52:47.441Z,78.93